Accueil
METAR-TAF:

METAR-TAF

Aéroports :

Wawa, Ontario, Canada

latitude: 47-58N, longitude: 084-47W, altitude: 287 m

Observation

Le bulletin a été fait il y a 1 heure et 3 minutes, à 19:00 UTC
Vent 6 kt de sud-ouest, variant entre sud/sud-ouest et nord-ouest
Température 19°C
Humidité 83%
Pression 1008 hPa
Visibilité: 24.1 km
Nuages fragmentés à une hauteur de 3000 ft, Cumulus congestus.

METAR: CYXZ 111900Z 22006KT 200V320 15SM BKN030TCU 19/16 A2978 RMK TCU6 SLP090 DENSITY ALT 1800FT

Heure: 16:03 (20:03 UTC)

Prévision

Le bulletin a été fait il y a 20 minutes, à 19:43 UTC
Prévision valable du 11 à 20 UTC au 11 à 24 UTC
Vent 6 kt de sud-ouest
Visibilité: 10 km
Nuages fragmentés à une hauteur de 3000 ft
Evoluant progressivement
du 11 à 22 UTC au 11 à 24 UTC
Vent 3 kt de direction variable

TAF: CYXZ 111943Z 1120/1124 22006KT P6SM BKN030 BECMG 1122/1124 VRB03KT RMK NXT FCST WILL BE ISSUED AT 121245Z

Observations et prévisions météorologiques de plus de 4000 aéroports (messages METAR et TAF).

Les stations disponibles sont représentées par des disques jaunes et rouges sur la carte.

Passer la souris dessus pour voir le nom de la station.

Cliquer dessus pour voir les observations et prévisions météorologiques.

Pour changer de carte: cliquez sur les boutons verts avec une croix noire pour zoomer, sur le bouton vert avec un tiret pour effectuer un zoom arrière, ou sur les flèches vertes pour les cartes adjacentes.


METAR-TAF: